createdAt,value
2022-08-22T00:00:25.550Z,50.834820
2022-08-22T00:01:26.443Z,50.834843
2022-08-22T00:02:26.234Z,50.834854
2022-08-22T00:02:46.510Z,50.834850
2022-08-22T00:02:53.910Z,50.834835
2022-08-22T00:02:55.810Z,50.834850
2022-08-22T00:02:58.997Z,50.834843
2022-08-22T00:02:59.809Z,50.834888
2022-08-22T00:03:02.139Z,50.834854
2022-08-22T00:03:12.014Z,50.834831
2022-08-22T00:03:12.458Z,50.834862
2022-08-22T00:03:25.509Z,50.834850
2022-08-22T00:04:26.183Z,50.834816
2022-08-22T00:05:25.485Z,50.834843
2022-08-22T00:06:26.338Z,50.834869
2022-08-22T00:07:25.501Z,50.834831
2022-08-22T00:08:25.559Z,50.834850
2022-08-22T00:09:26.271Z,50.834858
2022-08-22T00:10:25.909Z,50.834877
2022-08-22T00:11:26.627Z,50.834869
2022-08-22T00:12:26.279Z,50.834858
2022-08-22T00:13:25.557Z,50.834858
2022-08-22T00:14:25.557Z,50.834850
2022-08-22T00:15:42.943Z,50.834827
2022-08-22T00:16:26.441Z,50.834827
2022-08-22T00:17:25.472Z,50.834839
2022-08-22T00:18:25.876Z,50.834820
2022-08-22T00:19:26.252Z,50.834831
2022-08-22T00:20:28.128Z,50.834816
2022-08-22T00:21:25.396Z,50.834839
2022-08-22T00:22:26.194Z,50.834843
2022-08-22T00:23:25.401Z,50.834812
2022-08-22T00:24:25.350Z,50.834805
2022-08-22T00:25:26.066Z,50.834793
2022-08-22T00:26:25.325Z,50.834793
2022-08-22T00:27:25.327Z,50.834789
2022-08-22T00:28:25.759Z,50.834827
2022-08-22T00:29:25.323Z,50.834827
2022-08-22T00:30:25.339Z,50.834820
2022-08-22T00:31:25.309Z,50.834820
2022-08-22T00:32:25.305Z,50.834812
2022-08-22T00:33:25.293Z,50.834808
2022-08-22T00:34:46.341Z,50.834808
2022-08-22T00:35:25.282Z,50.834789
2022-08-22T00:36:25.858Z,50.834789
2022-08-22T00:37:25.282Z,50.834805
2022-08-22T00:38:25.241Z,50.834797
2022-08-22T00:39:25.247Z,50.834789
2022-08-22T00:40:25.272Z,50.834812
2022-08-22T00:41:25.222Z,50.834793
2022-08-22T00:42:31.745Z,50.834801
2022-08-22T00:43:26.226Z,50.834793
2022-08-22T00:44:26.267Z,50.834797
2022-08-22T00:45:25.860Z,50.834785
2022-08-22T00:46:25.209Z,50.834801
2022-08-22T00:47:25.146Z,50.834797
2022-08-22T00:48:54.976Z,50.834797
2022-08-22T00:49:29.683Z,50.834793
2022-08-22T00:50:47.276Z,50.834805
2022-08-22T00:51:54.795Z,50.834805
2022-08-22T00:52:29.663Z,50.834789
2022-08-22T00:53:25.133Z,50.834839
2022-08-22T00:54:25.149Z,50.834831
2022-08-22T00:55:49.691Z,50.834820
2022-08-22T00:56:27.363Z,50.834816
2022-08-22T00:57:49.307Z,50.834789
2022-08-22T00:58:42.174Z,50.834797
2022-08-22T00:59:30.199Z,50.834805
2022-08-22T01:00:27.396Z,50.834812
2022-08-22T01:01:29.752Z,50.834785
2022-08-22T01:02:30.756Z,50.834812
2022-08-22T01:03:27.783Z,50.834785
2022-08-22T01:04:33.247Z,50.834797
2022-08-22T01:05:33.219Z,50.834797
2022-08-22T01:06:27.703Z,50.834778
2022-08-22T01:07:26.015Z,50.834751
2022-08-22T01:08:34.914Z,50.834797
2022-08-22T01:09:25.012Z,50.834797
2022-08-22T01:10:25.035Z,50.834774
2022-08-22T01:11:33.769Z,50.834812
2022-08-22T01:12:44.853Z,50.834801
2022-08-22T01:13:24.988Z,50.834785
2022-08-22T01:14:34.569Z,50.834801
2022-08-22T01:15:25.997Z,50.834797
2022-08-22T01:16:25.005Z,50.834824
2022-08-22T01:17:24.926Z,50.834801
2022-08-22T01:18:24.961Z,50.834766
2022-08-22T01:19:24.928Z,50.834766
2022-08-22T01:20:24.909Z,50.834793
2022-08-22T01:21:24.918Z,50.834763
2022-08-22T01:22:24.883Z,50.834766
2022-08-22T01:23:27.865Z,50.834782
2022-08-22T01:24:24.868Z,50.834770
2022-08-22T01:25:26.092Z,50.834778
2022-08-22T01:26:25.066Z,50.834770
2022-08-22T01:27:24.860Z,50.834782
2022-08-22T01:28:24.926Z,50.834797
2022-08-22T01:29:27.767Z,50.834789
2022-08-22T01:30:24.828Z,50.834797
2022-08-22T01:31:24.830Z,50.834812
2022-08-22T01:32:24.847Z,50.834789
2022-08-22T01:33:24.842Z,50.834782
2022-08-22T01:34:24.843Z,50.834778
2022-08-22T01:35:24.866Z,50.834778
2022-08-22T01:36:24.833Z,50.834789
2022-08-22T01:37:24.829Z,50.834778
2022-08-22T01:38:24.823Z,50.834805
2022-08-22T01:39:24.891Z,50.834789
2022-08-22T01:40:24.964Z,50.834789
2022-08-22T01:41:24.791Z,50.834805
2022-08-22T01:42:24.868Z,50.834782
2022-08-22T01:43:58.790Z,50.834785
2022-08-22T01:44:25.766Z,50.834763
2022-08-22T02:05:01.499Z,50.834789
2022-08-22T02:06:01.580Z,50.834805
2022-08-22T02:07:01.469Z,50.834797
2022-08-22T02:08:01.428Z,50.834770
2022-08-22T02:09:02.107Z,50.834789
2022-08-22T02:10:01.418Z,50.834785
2022-08-22T02:11:02.069Z,50.834785
2022-08-22T02:12:01.444Z,50.834770
2022-08-22T02:13:01.453Z,50.834785
2022-08-22T02:14:01.460Z,50.834789
2022-08-22T02:15:01.372Z,50.834766
2022-08-22T02:16:01.370Z,50.834759
2022-08-22T02:17:01.351Z,50.834782
2022-08-22T02:18:01.374Z,50.834793
2022-08-22T02:19:01.344Z,50.834816
2022-08-22T02:20:01.368Z,50.834801
2022-08-22T02:21:02.037Z,50.834793
2022-08-22T02:22:01.436Z,50.834812
2022-08-22T02:23:01.393Z,50.834846
2022-08-22T02:24:01.359Z,50.834820
2022-08-22T02:25:01.301Z,50.834816
2022-08-22T02:26:01.370Z,50.834785
2022-08-22T02:27:01.334Z,50.834766
2022-08-22T02:28:02.097Z,50.834778
2022-08-22T02:29:02.074Z,50.834816
2022-08-22T02:30:02.101Z,50.834797
2022-08-22T02:31:01.324Z,50.834808
2022-08-22T02:32:01.311Z,50.834805
2022-08-22T02:33:01.245Z,50.834801
2022-08-22T02:34:02.346Z,50.834755
2022-08-22T02:35:29.084Z,50.834782
2022-08-22T02:36:01.180Z,50.834801
2022-08-22T02:37:01.171Z,50.834774
2022-08-22T02:38:01.181Z,50.834770
2022-08-22T02:39:01.144Z,50.834770
2022-08-22T02:40:01.220Z,50.834801
2022-08-22T02:41:01.127Z,50.834797
2022-08-22T02:42:01.161Z,50.834797
2022-08-22T02:43:01.141Z,50.834793
2022-08-22T02:44:01.168Z,50.834793
2022-08-22T02:45:01.636Z,50.834774
2022-08-22T02:46:01.136Z,50.834812
2022-08-22T02:47:01.189Z,50.834797
2022-08-22T02:48:02.111Z,50.834808
2022-08-22T02:49:01.153Z,50.834797
2022-08-22T02:50:01.053Z,50.834785
2022-08-22T02:51:01.054Z,50.834789
2022-08-22T02:52:01.049Z,50.834805
2022-08-22T02:53:01.069Z,50.834797
2022-08-22T02:54:01.076Z,50.834801
2022-08-22T02:55:01.040Z,50.834801
2022-08-22T02:56:01.056Z,50.834812
2022-08-22T02:57:01.040Z,50.834812
2022-08-22T02:58:01.155Z,50.834827
2022-08-22T02:59:01.086Z,50.834805
2022-08-22T03:00:01.064Z,50.834797
2022-08-22T03:01:01.049Z,50.834808
2022-08-22T03:02:01.950Z,50.834812
2022-08-22T03:03:00.988Z,50.834793
2022-08-22T03:04:00.996Z,50.834808
2022-08-22T03:05:02.528Z,50.834801
2022-08-22T03:06:01.813Z,50.834785
2022-08-22T03:07:01.970Z,50.834797
2022-08-22T03:08:00.963Z,50.834808
2022-08-22T03:09:01.015Z,50.834812
2022-08-22T03:10:01.067Z,50.834816
2022-08-22T03:11:01.961Z,50.834839
2022-08-22T03:12:00.985Z,50.834827
2022-08-22T03:13:00.962Z,50.834816
2022-08-22T03:14:00.943Z,50.834808
2022-08-22T03:15:01.550Z,50.834816
2022-08-22T03:16:00.922Z,50.834816
2022-08-22T03:17:00.857Z,50.834824
2022-08-22T03:18:01.016Z,50.834839
2022-08-22T03:19:00.873Z,50.834824
2022-08-22T03:20:00.849Z,50.834831
2022-08-22T03:21:00.860Z,50.834827
2022-08-22T03:22:00.863Z,50.834797
2022-08-22T03:23:00.812Z,50.834801
2022-08-22T03:24:00.868Z,50.834793
2022-08-22T03:25:00.869Z,50.834805
2022-08-22T03:26:00.821Z,50.834824
2022-08-22T03:27:01.809Z,50.834812
2022-08-22T03:28:01.739Z,50.834827
2022-08-22T03:29:00.816Z,50.834831
2022-08-22T03:30:00.797Z,50.834846
2022-08-22T03:31:01.113Z,50.834805
2022-08-22T03:32:00.929Z,50.834816
2022-08-22T03:33:00.776Z,50.834805
2022-08-22T03:34:00.779Z,50.834839
2022-08-22T03:35:00.733Z,50.834827
2022-08-22T03:36:00.770Z,50.834820
2022-08-22T03:37:00.831Z,50.834820
2022-08-22T03:38:00.784Z,50.834824
2022-08-22T03:39:00.714Z,50.834793
2022-08-22T03:40:00.760Z,50.834797
2022-08-22T03:41:01.556Z,50.834812
2022-08-22T03:42:00.717Z,50.834789
2022-08-22T03:43:00.722Z,50.834801
2022-08-22T03:44:00.686Z,50.834785
2022-08-22T03:45:00.684Z,50.834816
2022-08-22T03:46:00.647Z,50.834824
2022-08-22T04:04:17.289Z,50.834656
2022-08-22T04:05:17.290Z,50.834797
2022-08-22T04:06:17.282Z,50.834820
2022-08-22T04:07:31.709Z,50.834793
2022-08-22T04:08:18.258Z,50.834812
2022-08-22T04:09:17.289Z,50.834789
2022-08-22T04:10:17.280Z,50.834824
2022-08-22T04:11:17.249Z,50.834797
2022-08-22T04:12:17.242Z,50.834805
2022-08-22T04:13:17.244Z,50.834778
2022-08-22T04:14:17.254Z,50.834801
2022-08-22T04:15:17.286Z,50.834808
2022-08-22T04:16:17.234Z,50.834824
2022-08-22T04:17:17.231Z,50.834820
2022-08-22T04:18:18.229Z,50.834801
2022-08-22T04:19:17.202Z,50.834831
2022-08-22T04:20:17.223Z,50.834778
2022-08-22T04:21:17.207Z,50.834805
2022-08-22T04:22:17.178Z,50.834812
2022-08-22T04:23:17.183Z,50.834797
2022-08-22T04:24:52.100Z,50.834820
2022-08-22T04:25:51.431Z,50.834808
2022-08-22T04:26:49.294Z,50.834801
2022-08-22T04:27:51.440Z,50.834812
2022-08-22T04:28:49.032Z,50.834812
2022-08-22T04:29:17.086Z,50.834805
2022-08-22T04:30:49.500Z,50.834820
2022-08-22T04:31:17.087Z,50.834797
2022-08-22T04:32:50.167Z,50.834816
2022-08-22T04:33:18.002Z,50.834808
2022-08-22T04:34:17.075Z,50.834820
2022-08-22T04:35:17.048Z,50.834805
2022-08-22T04:36:17.044Z,50.834816
2022-08-22T04:37:18.036Z,50.834820
2022-08-22T04:38:17.319Z,50.834785
2022-08-22T04:39:17.065Z,50.834805
2022-08-22T04:40:17.127Z,50.834778
2022-08-22T04:41:17.058Z,50.834789
2022-08-22T04:42:32.407Z,50.834778
2022-08-22T04:43:19.041Z,50.834785
2022-08-22T04:44:17.037Z,50.834782
2022-08-22T04:45:17.086Z,50.834797
2022-08-22T04:46:17.066Z,50.834782
2022-08-22T04:47:17.019Z,50.834770
2022-08-22T04:48:17.004Z,50.834793
2022-08-22T04:49:18.707Z,50.834793
2022-08-22T04:50:17.038Z,50.834805
2022-08-22T04:51:17.004Z,50.834808
2022-08-22T04:52:17.651Z,50.834816
2022-08-22T04:53:16.957Z,50.834824
2022-08-22T04:54:17.063Z,50.834812
2022-08-22T04:55:17.128Z,50.834816
2022-08-22T04:56:16.918Z,50.834812
2022-08-22T04:57:17.091Z,50.834812
2022-08-22T04:58:17.009Z,50.834793
2022-08-22T04:59:17.712Z,50.834805
2022-08-22T05:00:16.923Z,50.834797
2022-08-22T05:01:16.980Z,50.834785
2022-08-22T05:02:16.904Z,50.834797
2022-08-22T05:03:16.911Z,50.834789
2022-08-22T05:04:16.884Z,50.834793
2022-08-22T05:05:16.899Z,50.834797
2022-08-22T05:06:16.888Z,50.834793
2022-08-22T05:07:16.869Z,50.834789
2022-08-22T05:08:16.866Z,50.834789
2022-08-22T05:09:16.812Z,50.834782
2022-08-22T05:10:16.810Z,50.834797
2022-08-22T05:11:16.831Z,50.834789
2022-08-22T05:12:16.809Z,50.834785
2022-08-22T05:13:16.828Z,50.834785
2022-08-22T05:14:16.927Z,50.834793
2022-08-22T05:15:19.042Z,50.834789
2022-08-22T05:16:17.775Z,50.834797
2022-08-22T05:17:17.063Z,50.834793
2022-08-22T05:18:16.762Z,50.834782
2022-08-22T05:19:18.266Z,50.834793
2022-08-22T05:20:16.784Z,50.834801
2022-08-22T05:21:16.732Z,50.834793
2022-08-22T05:22:16.712Z,50.834785
2022-08-22T05:23:17.504Z,50.834770
2022-08-22T05:24:16.721Z,50.834770
2022-08-22T05:25:16.708Z,50.834785
2022-08-22T05:26:16.693Z,50.834789
2022-08-22T05:27:16.718Z,50.834782
2022-08-22T05:28:16.746Z,50.834774
2022-08-22T05:29:16.720Z,50.834770
2022-08-22T05:30:16.681Z,50.834778
2022-08-22T05:31:16.627Z,50.834774
2022-08-22T05:32:16.656Z,50.834759
2022-08-22T05:33:16.629Z,50.834778
2022-08-22T05:34:17.668Z,50.834778
2022-08-22T05:35:16.704Z,50.834778
2022-08-22T05:36:16.738Z,50.834778
2022-08-22T05:37:17.173Z,50.834774
2022-08-22T05:38:16.609Z,50.834770
2022-08-22T05:39:16.633Z,50.834766
2022-08-22T05:40:16.657Z,50.834782
2022-08-22T05:41:16.601Z,50.834789
2022-08-22T05:42:16.569Z,50.834778
2022-08-22T05:43:16.559Z,50.834789
2022-08-22T05:44:16.574Z,50.834782
2022-08-22T05:45:16.605Z,50.834785
2022-08-22T05:46:16.568Z,50.834801
2022-08-22T05:47:16.571Z,50.834793
2022-08-22T05:48:16.508Z,50.834774
2022-08-22T05:49:16.558Z,50.834785
2022-08-22T05:50:16.598Z,50.834805
2022-08-22T05:51:16.491Z,50.834797
2022-08-22T05:52:16.500Z,50.834812
2022-08-22T05:53:16.477Z,50.834797
2022-08-22T05:54:16.474Z,50.834793
2022-08-22T05:55:16.521Z,50.834793
2022-08-22T05:56:16.472Z,50.834785
2022-08-22T05:57:16.477Z,50.834797
2022-08-22T05:58:16.504Z,50.834785
2022-08-22T05:59:16.450Z,50.834793
2022-08-22T06:00:16.435Z,50.834782
2022-08-22T06:01:16.452Z,50.834778
2022-08-22T06:02:16.445Z,50.834770
2022-08-22T06:03:16.457Z,50.834763
2022-08-22T06:04:16.399Z,50.834763
2022-08-22T06:05:16.386Z,50.834774
2022-08-22T06:06:17.075Z,50.834770
2022-08-22T06:07:16.408Z,50.834755
2022-08-22T06:08:16.437Z,50.834778
2022-08-22T06:09:16.434Z,50.834789
2022-08-22T06:10:16.332Z,50.834797
2022-08-22T06:11:16.390Z,50.834816
2022-08-22T06:12:21.921Z,50.834827
2022-08-22T06:13:23.551Z,50.834816
2022-08-22T06:14:17.345Z,50.834782
2022-08-22T06:15:16.913Z,50.834774
2022-08-22T06:16:16.315Z,50.834770
2022-08-22T06:17:16.305Z,50.834766
2022-08-22T06:18:16.300Z,50.834770
2022-08-22T06:19:19.877Z,50.834774
2022-08-22T06:20:16.355Z,50.834778
2022-08-22T06:21:16.309Z,50.834785
2022-08-22T06:22:17.109Z,50.834766
2022-08-22T06:23:16.292Z,50.834770
2022-08-22T06:24:16.273Z,50.834759
2022-08-22T06:25:16.275Z,50.834766
2022-08-22T06:26:20.520Z,50.834774
2022-08-22T06:27:17.329Z,50.834770
2022-08-22T06:28:18.499Z,50.834782
2022-08-22T06:29:16.224Z,50.834785
2022-08-22T06:30:18.176Z,50.834797
2022-08-22T06:31:16.210Z,50.834801
2022-08-22T06:32:16.198Z,50.834793
2022-08-22T06:33:16.201Z,50.834774
2022-08-22T06:34:16.170Z,50.834778
2022-08-22T06:35:16.193Z,50.834778
2022-08-22T06:36:16.174Z,50.834782
2022-08-22T06:37:16.166Z,50.834785
2022-08-22T06:38:16.135Z,50.834774
2022-08-22T06:39:16.138Z,50.834778
2022-08-22T06:40:16.208Z,50.834797
2022-08-22T06:41:16.186Z,50.834774
2022-08-22T06:42:17.047Z,50.834797
2022-08-22T06:43:17.130Z,50.834785
2022-08-22T06:44:16.117Z,50.834816
2022-08-22T06:45:16.120Z,50.834805
2022-08-22T06:46:16.121Z,50.834801
2022-08-22T06:47:16.078Z,50.834782
2022-08-22T06:48:16.044Z,50.834789
2022-08-22T06:49:16.058Z,50.834797
2022-08-22T06:50:16.058Z,50.834778
2022-08-22T06:51:17.060Z,50.834816
2022-08-22T06:52:16.078Z,50.834816
2022-08-22T06:53:15.997Z,50.834812
2022-08-22T06:54:16.035Z,50.834824
2022-08-22T06:55:16.043Z,50.834812
2022-08-22T06:56:16.003Z,50.834812
2022-08-22T06:57:16.058Z,50.834831
2022-08-22T06:58:16.040Z,50.834812
2022-08-22T06:59:16.009Z,50.834820
2022-08-22T07:00:16.018Z,50.834824
2022-08-22T07:01:16.156Z,50.834808
2022-08-22T07:02:15.945Z,50.834812
2022-08-22T07:03:16.007Z,50.834816
2022-08-22T07:04:15.981Z,50.834801
2022-08-22T07:05:15.985Z,50.834812
2022-08-22T07:06:15.962Z,50.834835
2022-08-22T07:07:15.932Z,50.834824
2022-08-22T07:08:15.923Z,50.834797
2022-08-22T07:09:15.959Z,50.834793
2022-08-22T07:10:15.936Z,50.834801
2022-08-22T07:11:15.930Z,50.834797
2022-08-22T07:12:15.879Z,50.834805
2022-08-22T07:13:15.894Z,50.834816
2022-08-22T07:14:15.961Z,50.834805
2022-08-22T07:15:15.867Z,50.834816
2022-08-22T07:16:15.881Z,50.834824
2022-08-22T07:17:15.888Z,50.834831
2022-08-22T07:18:15.872Z,50.834839
2022-08-22T07:19:15.863Z,50.834824
2022-08-22T07:20:15.816Z,50.834820
2022-08-22T07:21:15.827Z,50.834816
2022-08-22T07:22:15.819Z,50.834812
2022-08-22T07:23:15.829Z,50.834835
2022-08-22T07:24:15.816Z,50.834835
2022-08-22T07:25:15.845Z,50.834820
2022-08-22T07:26:15.816Z,50.834824
2022-08-22T07:27:15.937Z,50.834820
2022-08-22T07:28:15.949Z,50.834839
2022-08-22T07:29:15.779Z,50.834846
2022-08-22T07:30:15.826Z,50.834843
2022-08-22T07:31:16.762Z,50.834827
2022-08-22T07:32:15.797Z,50.834831
2022-08-22T07:33:25.995Z,50.834831
2022-08-22T07:34:16.780Z,50.834839
2022-08-22T07:35:15.741Z,50.834858
2022-08-22T07:36:15.716Z,50.834839
2022-08-22T07:37:15.720Z,50.834835
2022-08-22T07:38:15.695Z,50.834820
2022-08-22T07:39:15.706Z,50.834827
2022-08-22T07:40:15.798Z,50.834835
2022-08-22T07:41:15.718Z,50.834839
2022-08-22T07:42:15.682Z,50.834850
2022-08-22T07:43:15.670Z,50.834839
2022-08-22T07:44:15.651Z,50.834831
2022-08-22T07:45:15.633Z,50.834816
2022-08-22T07:46:15.666Z,50.834831
2022-08-22T07:47:15.643Z,50.834843
2022-08-22T07:48:25.032Z,50.834831
2022-08-22T07:49:17.626Z,50.834839
2022-08-22T07:50:15.596Z,50.834846
2022-08-22T07:51:15.645Z,50.834843
2022-08-22T07:52:15.642Z,50.834827
2022-08-22T07:53:15.752Z,50.834846
2022-08-22T07:54:15.575Z,50.834827
2022-08-22T07:55:15.590Z,50.834835
2022-08-22T07:56:15.621Z,50.834846
2022-08-22T07:57:15.588Z,50.834850
2022-08-22T07:58:15.586Z,50.834846
2022-08-22T07:59:15.593Z,50.834858
2022-08-22T08:00:15.592Z,50.834854
2022-08-22T08:01:15.575Z,50.834862
2022-08-22T08:02:15.542Z,50.834877
2022-08-22T08:03:15.578Z,50.834839
2022-08-22T08:04:15.529Z,50.834835
2022-08-22T08:05:15.562Z,50.834854
2022-08-22T08:06:15.516Z,50.834835
2022-08-22T08:07:15.533Z,50.834858
2022-08-22T08:08:15.769Z,50.834846
2022-08-22T08:09:15.537Z,50.834846
2022-08-22T08:10:15.506Z,50.834846
2022-08-22T08:11:15.490Z,50.834835
2022-08-22T08:12:15.497Z,50.834835
2022-08-22T08:13:15.504Z,50.834843
2022-08-22T08:14:15.509Z,50.834839
2022-08-22T08:15:15.482Z,50.834831
2022-08-22T08:16:15.469Z,50.834839
2022-08-22T08:17:15.417Z,50.834846
2022-08-22T08:18:15.537Z,50.834869
2022-08-22T08:19:15.436Z,50.834839
2022-08-22T08:20:15.443Z,50.834839
2022-08-22T08:21:15.503Z,50.834873
2022-08-22T08:22:15.418Z,50.834869
2022-08-22T08:23:15.462Z,50.834877
2022-08-22T08:24:16.392Z,50.834866
2022-08-22T08:25:15.405Z,50.834850
2022-08-22T08:26:15.372Z,50.834881
2022-08-22T08:27:15.409Z,50.834862
2022-08-22T08:28:15.363Z,50.834877
2022-08-22T08:29:15.364Z,50.834858
2022-08-22T08:30:15.724Z,50.834854
2022-08-22T08:31:16.355Z,50.834843
2022-08-22T08:32:15.382Z,50.834869
2022-08-22T08:33:24.626Z,50.834858
2022-08-22T08:34:16.347Z,50.834892
2022-08-22T08:35:15.383Z,50.834869
2022-08-22T08:36:15.344Z,50.834866
2022-08-22T08:37:15.323Z,50.834888
2022-08-22T08:38:15.367Z,50.834854
2022-08-22T08:39:15.341Z,50.834862
2022-08-22T08:40:15.411Z,50.834839
2022-08-22T08:41:17.029Z,50.834873
2022-08-22T08:42:15.287Z,50.834881
2022-08-22T08:43:15.253Z,50.834885
2022-08-22T08:44:15.256Z,50.834869
2022-08-22T08:45:15.235Z,50.834866
2022-08-22T08:46:15.254Z,50.834854
2022-08-22T08:47:15.211Z,50.834877
2022-08-22T08:48:15.221Z,50.834869
2022-08-22T08:49:15.742Z,50.834888
2022-08-22T08:50:15.316Z,50.834854
2022-08-22T08:51:15.255Z,50.834858
2022-08-22T08:52:15.208Z,50.834846
2022-08-22T08:53:15.232Z,50.834831
2022-08-22T08:54:15.340Z,50.834888
2022-08-22T08:55:21.898Z,50.834873
2022-08-22T08:56:19.609Z,50.834873
2022-08-22T08:57:16.174Z,50.834862
2022-08-22T08:58:15.166Z,50.834850
2022-08-22T08:59:15.138Z,50.834854
2022-08-22T09:00:15.168Z,50.834869
2022-08-22T09:01:15.241Z,50.834869
2022-08-22T09:02:20.480Z,50.834862
2022-08-22T09:03:21.140Z,50.834839
2022-08-22T09:04:16.120Z,50.834839
2022-08-22T09:05:15.144Z,50.834839
2022-08-22T09:06:15.095Z,50.834846
2022-08-22T09:07:15.109Z,50.834827
2022-08-22T09:08:15.056Z,50.834846
2022-08-22T09:09:15.062Z,50.834858
2022-08-22T09:10:15.770Z,50.834862
2022-08-22T09:11:15.074Z,50.834850
2022-08-22T09:12:15.067Z,50.834854
2022-08-22T09:13:15.058Z,50.834850
2022-08-22T09:14:15.034Z,50.834846
2022-08-22T09:15:15.005Z,50.834850
2022-08-22T09:16:15.090Z,50.834843
2022-08-22T09:17:15.017Z,50.834843
2022-08-22T09:18:18.288Z,50.834835
2022-08-22T09:19:15.040Z,50.834839
2022-08-22T09:21:16.030Z,50.834835
2022-08-22T09:22:16.066Z,50.834843
2022-08-22T09:23:14.958Z,50.834831
2022-08-22T09:24:14.954Z,50.834846
2022-08-22T09:25:15.088Z,50.834846
2022-08-22T09:26:14.970Z,50.834846
2022-08-22T09:27:14.959Z,50.834846
2022-08-22T09:28:14.970Z,50.834843
2022-08-22T09:29:15.665Z,50.834820
2022-08-22T09:30:15.003Z,50.834831
2022-08-22T09:31:17.090Z,50.834866
2022-08-22T09:32:15.921Z,50.834900
2022-08-22T09:33:14.938Z,50.834869
2022-08-22T09:34:23.803Z,50.834850
2022-08-22T09:35:15.867Z,50.834846
2022-08-22T09:36:14.879Z,50.834843
2022-08-22T09:37:14.927Z,50.834846
2022-08-22T09:38:14.939Z,50.834854
2022-08-22T09:39:15.801Z,50.834866
2022-08-22T09:40:15.553Z,50.834831
2022-08-22T09:40:17.639Z,50.834858
2022-08-22T09:41:15.897Z,50.834846
2022-08-22T09:42:48.237Z,50.834846
2022-08-22T09:43:48.971Z,50.834843
2022-08-22T09:44:48.729Z,50.834846
2022-08-22T09:45:48.265Z,50.834843
2022-08-22T09:46:48.796Z,50.834846
2022-08-22T09:47:48.324Z,50.834839
2022-08-22T09:48:49.071Z,50.834827
2022-08-22T09:49:48.388Z,50.834820
2022-08-22T09:50:48.252Z,50.834831
2022-08-22T09:51:42.456Z,50.834835
2022-08-22T09:52:50.027Z,50.834831
2022-08-22T09:53:48.058Z,50.834846
2022-08-22T09:54:14.774Z,50.834824
2022-08-22T09:55:50.205Z,50.834820
2022-08-22T09:56:15.955Z,50.834816
2022-08-22T09:57:14.738Z,50.834831
2022-08-22T09:58:14.728Z,50.834827
2022-08-22T09:59:14.863Z,50.834824
2022-08-22T10:00:14.789Z,50.834812
2022-08-22T10:01:14.720Z,50.834812
2022-08-22T10:02:15.919Z,50.834820
2022-08-22T10:03:14.696Z,50.834820
2022-08-22T10:04:14.659Z,50.834824
2022-08-22T10:05:41.310Z,50.834824
2022-08-22T10:06:15.643Z,50.834820
2022-08-22T10:07:14.694Z,50.834824
2022-08-22T10:08:14.697Z,50.834816
2022-08-22T10:09:15.657Z,50.834816
2022-08-22T10:10:14.692Z,50.834824
2022-08-22T10:11:14.614Z,50.834820
2022-08-22T10:12:14.616Z,50.834831
2022-08-22T10:13:14.638Z,50.834824
2022-08-22T10:14:14.641Z,50.834831
2022-08-22T10:15:15.641Z,50.834824
2022-08-22T10:16:14.657Z,50.834808
2022-08-22T10:17:14.622Z,50.834793
2022-08-22T10:18:15.683Z,50.834812
2022-08-22T10:19:14.638Z,50.834805
2022-08-22T10:20:14.574Z,50.834820
2022-08-22T10:21:14.684Z,50.834805
2022-08-22T10:22:14.582Z,50.834801
2022-08-22T10:23:14.611Z,50.834808
2022-08-22T10:24:25.124Z,50.834789
2022-08-22T10:25:15.567Z,50.834789
2022-08-22T10:26:22.936Z,50.834789
2022-08-22T10:27:15.616Z,50.834801
2022-08-22T10:28:14.612Z,50.834782
2022-08-22T10:29:15.581Z,50.834759
2022-08-22T10:30:16.495Z,50.834774
2022-08-22T10:31:14.581Z,50.834766
2022-08-22T10:32:14.821Z,50.834774
2022-08-22T10:33:14.523Z,50.834793
2022-08-22T10:34:14.547Z,50.834766
2022-08-22T10:35:15.338Z,50.834766
2022-08-22T10:36:14.505Z,50.834782
2022-08-22T10:37:14.506Z,50.834770
2022-08-22T10:38:14.488Z,50.834774
2022-08-22T10:39:15.023Z,50.834759
2022-08-22T10:40:14.514Z,50.834785
2022-08-22T10:41:14.677Z,50.834766
2022-08-22T10:42:14.457Z,50.834759
2022-08-22T10:43:14.452Z,50.834766
2022-08-22T10:44:15.357Z,50.834785
2022-08-22T10:45:14.405Z,50.834816
2022-08-22T10:46:14.417Z,50.834827
2022-08-22T10:47:14.421Z,50.834812
2022-08-22T10:48:14.413Z,50.834824
2022-08-22T10:49:17.630Z,50.834801
2022-08-22T10:50:15.470Z,50.834801
2022-08-22T10:51:14.538Z,50.834793
2022-08-22T10:52:15.911Z,50.834816
2022-08-22T10:53:15.396Z,50.834808
2022-08-22T10:54:14.347Z,50.834785
2022-08-22T10:55:15.419Z,50.834782
2022-08-22T10:56:14.335Z,50.834789
2022-08-22T10:57:14.337Z,50.834805
2022-08-22T10:58:15.374Z,50.834789
2022-08-22T10:59:15.037Z,50.834805
2022-08-22T11:00:14.505Z,50.834797
2022-08-22T11:01:38.368Z,50.834797
2022-08-22T11:02:15.345Z,50.834805
2022-08-22T11:03:18.730Z,50.834824
2022-08-22T11:04:16.474Z,50.834808
2022-08-22T11:05:14.264Z,50.834812
2022-08-22T11:06:14.283Z,50.834789
2022-08-22T11:07:14.263Z,50.834801
2022-08-22T11:08:14.349Z,50.834774
2022-08-22T11:09:14.258Z,50.834778
2022-08-22T11:10:14.220Z,50.834789
2022-08-22T11:11:15.240Z,50.834789
2022-08-22T11:12:15.736Z,50.834782
2022-08-22T11:13:15.243Z,50.834751
2022-08-22T11:14:14.223Z,50.834766
2022-08-22T11:15:14.205Z,50.834782
2022-08-22T11:16:15.260Z,50.834778
2022-08-22T11:17:30.893Z,50.834805
2022-08-22T11:18:15.168Z,50.834812
2022-08-22T11:19:15.192Z,50.834789
2022-08-22T11:20:14.209Z,50.834785
2022-08-22T11:21:14.206Z,50.834801
2022-08-22T11:22:14.710Z,50.834793
2022-08-22T11:23:14.165Z,50.834774
2022-08-22T11:24:19.987Z,50.834778
2022-08-22T11:25:15.113Z,50.834793
2022-08-22T11:26:15.165Z,50.834789
2022-08-22T11:27:47.646Z,50.834793
2022-08-22T11:28:14.110Z,50.834820
2022-08-22T11:29:14.489Z,50.834801
2022-08-22T11:30:18.170Z,50.834785
2022-08-22T11:31:14.159Z,50.834801
2022-08-22T11:32:14.146Z,50.834766
2022-08-22T11:33:14.114Z,50.834785
2022-08-22T11:34:14.105Z,50.834774
2022-08-22T11:35:14.087Z,50.834747
2022-08-22T11:36:14.092Z,50.834774
2022-08-22T11:37:14.039Z,50.834770
2022-08-22T11:38:14.124Z,50.834789
2022-08-22T11:39:18.097Z,50.834801
2022-08-22T11:40:14.135Z,50.834805
2022-08-22T11:41:14.048Z,50.834831
2022-08-22T11:42:14.005Z,50.834820
2022-08-22T11:43:18.029Z,50.834789
2022-08-22T11:44:14.021Z,50.834793
2022-08-22T11:45:16.379Z,50.834789
2022-08-22T11:46:15.804Z,50.834801
2022-08-22T11:47:13.955Z,50.834785
2022-08-22T11:48:13.985Z,50.834808
2022-08-22T11:49:13.961Z,50.834789
2022-08-22T11:50:14.198Z,50.834766
2022-08-22T11:51:13.991Z,50.834812
2022-08-22T11:52:13.976Z,50.834827
2022-08-22T11:53:14.372Z,50.834827